createdAt,value
2022-09-28T00:00:19.159Z,9.30
2022-09-28T00:02:45.810Z,9.30
2022-09-28T00:05:12.634Z,9.30
2022-09-28T00:07:39.182Z,9.40
2022-09-28T00:10:05.821Z,9.30
2022-09-28T00:12:33.264Z,9.30
2022-09-28T00:14:59.784Z,9.30
2022-09-28T00:17:26.520Z,9.40
2022-09-28T00:19:53.028Z,9.30
2022-09-28T00:22:19.596Z,9.30
2022-09-28T00:24:46.505Z,9.30
2022-09-28T00:27:13.098Z,9.20
2022-09-28T00:29:39.611Z,9.30
2022-09-28T00:32:09.499Z,9.20
2022-09-28T00:34:36.920Z,9.10
2022-09-28T00:37:05.212Z,9.10
2022-09-28T00:39:31.777Z,9.10
2022-09-28T00:41:58.849Z,9.10
2022-09-28T00:44:25.366Z,9.10
2022-09-28T00:46:54.682Z,9.00
2022-09-28T00:49:26.443Z,9.00
2022-09-28T00:51:52.956Z,9.00
2022-09-28T00:54:19.657Z,9.00
2022-09-28T00:56:47.066Z,9.00
2022-09-28T00:59:14.541Z,9.00
2022-09-28T01:01:41.220Z,9.00
2022-09-28T01:04:07.851Z,9.00
2022-09-28T01:06:35.725Z,9.00
2022-09-28T01:09:08.462Z,9.00
2022-09-28T01:11:38.654Z,9.00
2022-09-28T01:14:06.823Z,9.00
2022-09-28T01:16:34.066Z,9.00
2022-09-28T01:19:00.643Z,9.10
2022-09-28T01:21:27.154Z,9.00
2022-09-28T01:24:10.238Z,9.00
2022-09-28T01:26:44.020Z,8.90
2022-09-28T01:29:15.690Z,8.90
2022-09-28T01:31:44.158Z,9.00
2022-09-28T01:34:14.623Z,8.90
2022-09-28T01:36:47.322Z,8.90
2022-09-28T01:39:19.333Z,9.00
2022-09-28T01:41:48.032Z,9.00
2022-09-28T01:44:16.750Z,9.00
2022-09-28T01:46:46.270Z,9.00
2022-09-28T01:49:17.327Z,9.00
2022-09-28T01:51:50.699Z,9.00
2022-09-28T01:54:24.600Z,9.00
2022-09-28T01:57:02.063Z,8.90
2022-09-28T01:59:29.539Z,8.90
2022-09-28T02:02:25.674Z,8.90
2022-09-28T02:04:56.121Z,8.90
2022-09-28T02:07:30.048Z,8.90
2022-09-28T02:10:02.503Z,8.80
2022-09-28T02:12:35.237Z,8.90
2022-09-28T02:15:24.458Z,9.00
2022-09-28T02:17:51.751Z,8.90
2022-09-28T02:20:18.467Z,8.90
2022-09-28T02:22:49.572Z,8.90
2022-09-28T02:25:31.396Z,8.80
2022-09-28T02:28:03.672Z,8.80
2022-09-28T02:30:30.907Z,8.70
2022-09-28T02:33:05.191Z,8.80
2022-09-28T02:35:33.857Z,8.80
2022-09-28T02:38:00.343Z,8.80
2022-09-28T02:40:31.699Z,8.90
2022-09-28T02:43:16.971Z,8.80
2022-09-28T02:45:50.357Z,8.90
2022-09-28T02:48:43.577Z,8.90
2022-09-28T02:51:19.444Z,8.90
2022-09-28T02:54:04.744Z,8.80
2022-09-28T02:56:50.083Z,8.80
2022-09-28T02:59:19.672Z,8.80
2022-09-28T03:02:05.031Z,8.80
2022-09-28T03:04:40.928Z,8.60
2022-09-28T03:07:21.616Z,8.60
2022-09-28T03:09:58.702Z,8.70
2022-09-28T03:12:25.912Z,8.50
2022-09-28T03:15:07.660Z,8.60
2022-09-28T03:17:34.167Z,8.50
2022-09-28T03:20:00.818Z,8.50
2022-09-28T03:22:27.299Z,8.60
2022-09-28T03:24:53.810Z,8.60
2022-09-28T03:27:20.351Z,8.50
2022-09-28T03:29:46.949Z,8.60
2022-09-28T03:32:13.507Z,8.60
2022-09-28T03:34:40.033Z,8.60
2022-09-28T03:37:08.652Z,8.60
2022-09-28T03:39:35.172Z,8.50
2022-09-28T03:42:01.722Z,8.60
2022-09-28T03:44:28.269Z,8.60
2022-09-28T03:46:54.787Z,8.60
2022-09-28T03:49:21.290Z,8.70
2022-09-28T03:51:47.842Z,8.60
2022-09-28T03:54:14.347Z,8.60
2022-09-28T03:56:41.087Z,8.60
2022-09-28T03:59:07.589Z,8.60
2022-09-28T04:01:34.161Z,8.50
2022-09-28T04:04:00.782Z,8.50
2022-09-28T04:06:27.299Z,8.50
2022-09-28T04:08:53.862Z,8.40
2022-09-28T04:11:20.400Z,8.40
2022-09-28T04:13:50.165Z,8.40
2022-09-28T04:16:17.890Z,8.30
2022-09-28T04:18:44.516Z,8.30
2022-09-28T04:21:12.037Z,8.20
2022-09-28T04:23:39.301Z,8.20
2022-09-28T04:26:07.071Z,8.20
2022-09-28T04:28:52.038Z,8.10
2022-09-28T04:31:20.164Z,8.10
2022-09-28T04:33:46.715Z,8.10
2022-09-28T04:36:13.296Z,8.00
2022-09-28T04:38:56.032Z,8.00
2022-09-28T04:41:22.894Z,7.90
2022-09-28T04:43:49.713Z,7.90
2022-09-28T04:46:19.261Z,7.90
2022-09-28T04:48:45.841Z,7.90
2022-09-28T04:51:12.351Z,7.90
2022-09-28T04:53:41.719Z,7.80
2022-09-28T04:56:10.603Z,7.90
2022-09-28T04:58:37.189Z,7.80
2022-09-28T05:01:06.788Z,7.80
2022-09-28T05:03:33.976Z,7.80
2022-09-28T05:06:00.974Z,7.70
2022-09-28T05:08:27.672Z,7.70
2022-09-28T05:11:02.237Z,7.70
2022-09-28T05:13:29.191Z,7.70
2022-09-28T05:15:59.662Z,7.70
2022-09-28T05:18:28.387Z,7.70
2022-09-28T05:20:54.895Z,7.60
2022-09-28T05:23:21.514Z,7.60
2022-09-28T05:25:48.279Z,7.60
2022-09-28T05:28:16.602Z,7.60
2022-09-28T05:30:43.129Z,7.70
2022-09-28T05:33:09.674Z,7.70
2022-09-28T05:35:36.370Z,7.60
2022-09-28T05:38:04.655Z,7.70
2022-09-28T05:40:31.548Z,7.70
2022-09-28T05:43:02.042Z,7.70
2022-09-28T05:45:29.390Z,7.70
2022-09-28T05:47:56.719Z,7.60
2022-09-28T05:50:23.850Z,7.70
2022-09-28T05:53:00.287Z,7.70
2022-09-28T05:55:26.921Z,7.70
2022-09-28T05:57:53.667Z,7.70
2022-09-28T06:00:20.261Z,7.70
2022-09-28T06:02:54.978Z,7.70
2022-09-28T06:05:22.537Z,7.70
2022-09-28T06:07:49.242Z,7.70
2022-09-28T06:10:16.128Z,7.70
2022-09-28T06:12:42.756Z,7.70
2022-09-28T06:15:09.577Z,7.60
2022-09-28T06:17:36.196Z,7.70
2022-09-28T06:20:02.895Z,7.80
2022-09-28T06:22:29.420Z,7.90
2022-09-28T06:24:56.204Z,7.80
2022-09-28T06:27:23.005Z,7.80
2022-09-28T06:29:49.840Z,7.90
2022-09-28T06:32:16.685Z,8.00
2022-09-28T06:34:43.328Z,8.00
2022-09-28T06:37:09.920Z,8.10
2022-09-28T06:39:36.451Z,8.10
2022-09-28T06:42:03.369Z,8.20
2022-09-28T06:44:30.770Z,8.30
2022-09-28T06:46:57.366Z,8.30
2022-09-28T06:49:24.835Z,8.40
2022-09-28T06:51:52.301Z,8.50
2022-09-28T06:54:19.126Z,8.50
2022-09-28T06:56:45.803Z,8.50
2022-09-28T06:59:12.539Z,8.60
2022-09-28T07:01:42.564Z,8.70
2022-09-28T07:04:10.387Z,8.70
2022-09-28T07:06:39.251Z,8.70
2022-09-28T07:09:26.685Z,8.80
2022-09-28T07:11:54.165Z,8.80
2022-09-28T07:14:39.867Z,9.00
2022-09-28T07:17:13.770Z,8.90
2022-09-28T07:19:40.827Z,9.00
2022-09-28T07:22:07.509Z,9.20
2022-09-28T07:24:34.216Z,9.20
2022-09-28T07:27:04.996Z,9.30
2022-09-28T07:29:31.508Z,9.30
2022-09-28T07:31:58.059Z,9.40
2022-09-28T07:34:25.027Z,9.50
2022-09-28T07:36:51.971Z,9.50
2022-09-28T07:39:18.575Z,9.50
2022-09-28T07:41:45.125Z,9.60
2022-09-28T07:44:12.090Z,9.60
2022-09-28T07:46:39.021Z,9.80
2022-09-28T07:49:08.432Z,9.90
2022-09-28T07:51:38.260Z,9.90
2022-09-28T07:54:05.943Z,10.00
2022-09-28T07:56:34.233Z,10.00
2022-09-28T07:59:00.828Z,10.10
2022-09-28T08:01:27.905Z,10.10
2022-09-28T08:03:56.266Z,10.20
2022-09-28T08:06:23.237Z,10.30
2022-09-28T08:08:50.442Z,10.30
2022-09-28T08:11:18.713Z,10.40
2022-09-28T08:13:46.569Z,10.40
2022-09-28T08:16:13.501Z,10.50
2022-09-28T08:18:40.175Z,10.60
2022-09-28T08:21:25.373Z,10.60
2022-09-28T08:23:53.039Z,10.60
2022-09-28T08:26:19.831Z,10.70
2022-09-28T08:28:47.715Z,10.80
2022-09-28T08:31:14.429Z,10.90
2022-09-28T08:33:42.081Z,10.80
2022-09-28T08:36:09.842Z,11.00
2022-09-28T08:38:36.425Z,11.00
2022-09-28T08:41:11.570Z,11.10
2022-09-28T08:43:47.412Z,11.20
2022-09-28T08:46:14.822Z,11.20
2022-09-28T08:49:13.435Z,11.30
2022-09-28T08:51:59.041Z,11.40
2022-09-28T08:54:29.356Z,11.50
2022-09-28T08:57:03.464Z,11.60
2022-09-28T08:59:37.496Z,11.60
2022-09-28T09:02:04.571Z,11.70
2022-09-28T09:04:32.989Z,11.80
2022-09-28T09:07:18.305Z,11.70
2022-09-28T09:09:47.924Z,11.90
2022-09-28T09:12:20.847Z,11.90
2022-09-28T09:15:06.343Z,12.00
2022-09-28T09:17:32.858Z,12.10
2022-09-28T09:20:13.694Z,12.20
2022-09-28T09:22:41.723Z,12.30
2022-09-28T09:25:25.713Z,12.50
2022-09-28T09:28:19.760Z,12.50
2022-09-28T09:30:56.771Z,12.70
2022-09-28T09:33:38.347Z,12.80
2022-09-28T09:36:07.874Z,12.90
2022-09-28T09:38:41.870Z,13.10
2022-09-28T09:41:27.012Z,13.20
2022-09-28T09:44:01.872Z,13.10
2022-09-28T09:46:28.385Z,13.30
2022-09-28T09:49:24.351Z,13.50
2022-09-28T09:52:06.543Z,13.40
2022-09-28T09:54:39.170Z,13.30
2022-09-28T09:57:09.992Z,13.40
2022-09-28T09:59:38.526Z,13.40
2022-09-28T10:02:20.292Z,13.50
2022-09-28T10:04:48.357Z,13.70
2022-09-28T10:07:23.428Z,13.70
2022-09-28T10:09:51.771Z,13.80
2022-09-28T10:12:19.861Z,13.80
2022-09-28T10:14:46.651Z,13.90
2022-09-28T10:17:17.907Z,14.10
2022-09-28T10:19:44.705Z,14.10
2022-09-28T10:22:14.119Z,14.10
2022-09-28T10:24:48.593Z,14.20
2022-09-28T10:27:16.950Z,14.20
2022-09-28T10:29:46.659Z,14.20
2022-09-28T10:32:22.186Z,14.20
2022-09-28T10:34:50.993Z,14.30
2022-09-28T10:37:18.267Z,14.40
2022-09-28T10:39:53.451Z,14.50
2022-09-28T10:42:22.343Z,14.70
2022-09-28T10:44:51.018Z,14.60
2022-09-28T10:47:19.175Z,14.60
2022-09-28T10:49:48.510Z,14.50
2022-09-28T10:52:35.630Z,14.40
2022-09-28T10:55:02.837Z,14.50
2022-09-28T10:57:34.300Z,14.40
2022-09-28T11:00:01.769Z,14.50
2022-09-28T11:02:35.444Z,14.50
2022-09-28T11:05:03.610Z,14.40
2022-09-28T11:07:31.921Z,14.30
2022-09-28T11:09:59.484Z,14.40
2022-09-28T11:12:42.000Z,14.50
2022-09-28T11:15:16.127Z,14.40
2022-09-28T11:17:45.014Z,14.40
2022-09-28T11:20:28.123Z,14.50
2022-09-28T11:22:56.474Z,14.40
2022-09-28T11:25:24.240Z,14.50
2022-09-28T11:27:50.697Z,14.60
2022-09-28T11:30:39.005Z,14.60
2022-09-28T11:33:20.141Z,14.70
2022-09-28T11:35:51.552Z,14.70
2022-09-28T11:38:28.719Z,14.70
2022-09-28T11:40:55.268Z,14.70
2022-09-28T11:43:32.175Z,14.80
2022-09-28T11:46:04.682Z,14.80
2022-09-28T11:48:40.946Z,14.80
2022-09-28T11:51:20.507Z,14.90
2022-09-28T11:53:55.254Z,15.10
2022-09-28T11:56:42.049Z,15.00
2022-09-28T11:59:12.443Z,15.10
2022-09-28T12:01:45.285Z,15.10
2022-09-28T12:04:18.462Z,15.10
2022-09-28T12:06:49.801Z,15.20
2022-09-28T12:09:32.592Z,15.10
2022-09-28T12:12:02.176Z,15.00
2022-09-28T12:14:31.097Z,14.80
2022-09-28T12:17:07.745Z,14.60
2022-09-28T12:19:58.052Z,14.70
2022-09-28T12:22:30.305Z,14.90
2022-09-28T12:24:57.982Z,14.70
2022-09-28T12:27:27.572Z,14.60
2022-09-28T12:30:03.018Z,14.50
2022-09-28T12:32:29.568Z,14.60
2022-09-28T12:34:56.414Z,14.50
2022-09-28T12:37:38.494Z,14.60
2022-09-28T12:40:19.692Z,14.60
2022-09-28T12:42:56.819Z,14.40
2022-09-28T12:45:27.801Z,14.60
2022-09-28T12:48:00.211Z,14.60
2022-09-28T12:50:42.729Z,14.60
2022-09-28T12:53:25.836Z,14.40
2022-09-28T12:56:02.888Z,14.00
2022-09-28T12:58:32.352Z,14.00
2022-09-28T13:01:04.982Z,14.20
2022-09-28T13:03:45.746Z,14.10
2022-09-28T13:06:22.150Z,14.00
2022-09-28T13:08:48.690Z,13.90
2022-09-28T13:11:16.419Z,13.80
2022-09-28T13:13:50.088Z,13.70
2022-09-28T13:16:22.897Z,13.80
2022-09-28T13:19:04.799Z,13.60
2022-09-28T13:21:49.235Z,13.80
2022-09-28T13:24:32.578Z,13.60
2022-09-28T13:27:04.478Z,13.50
2022-09-28T13:29:32.127Z,13.60
2022-09-28T13:31:59.768Z,13.50
2022-09-28T13:34:27.626Z,13.50
2022-09-28T13:37:21.770Z,13.60
2022-09-28T13:39:52.722Z,13.60
2022-09-28T13:42:22.380Z,13.50
2022-09-28T13:44:52.095Z,13.60
2022-09-28T13:47:44.555Z,13.70
2022-09-28T13:50:13.856Z,13.60
2022-09-28T13:52:43.911Z,13.70
2022-09-28T13:55:23.222Z,13.90
2022-09-28T13:58:01.379Z,14.00
2022-09-28T14:00:30.882Z,13.80
2022-09-28T14:03:01.443Z,13.90
2022-09-28T14:05:34.367Z,14.10
2022-09-28T14:08:09.948Z,14.10
2022-09-28T14:10:56.072Z,14.20
2022-09-28T14:13:40.706Z,14.50
2022-09-28T14:16:21.060Z,14.70
2022-09-28T14:18:51.609Z,14.60
2022-09-28T14:21:44.691Z,14.40
2022-09-28T14:24:15.450Z,14.30
2022-09-28T14:26:45.110Z,14.30
2022-09-28T14:29:20.479Z,14.40
2022-09-28T14:31:47.133Z,14.40
2022-09-28T14:34:30.150Z,14.40
2022-09-28T14:37:15.327Z,14.40
2022-09-28T14:40:02.759Z,14.50
2022-09-28T14:42:32.315Z,14.20
2022-09-28T14:45:05.392Z,14.40
2022-09-28T14:47:56.765Z,14.60
2022-09-28T14:50:27.699Z,14.40
2022-09-28T14:52:55.950Z,14.50
2022-09-28T14:55:31.680Z,14.50
2022-09-28T14:58:02.505Z,14.40
2022-09-28T15:00:30.624Z,14.10
2022-09-28T15:03:06.737Z,13.90
2022-09-28T15:05:41.817Z,14.10
2022-09-28T15:08:09.512Z,14.30
2022-09-28T15:10:37.506Z,14.20
2022-09-28T15:13:05.477Z,14.30
2022-09-28T15:15:36.758Z,14.30
2022-09-28T15:18:03.373Z,14.60
2022-09-28T15:20:41.729Z,14.70
2022-09-28T15:23:23.316Z,14.90
2022-09-28T15:25:53.931Z,14.70
2022-09-28T15:28:24.039Z,14.70
2022-09-28T15:30:51.296Z,14.70
2022-09-28T15:33:49.790Z,14.50
2022-09-28T15:36:21.325Z,14.80
2022-09-28T15:38:52.571Z,15.60
2022-09-28T15:41:19.197Z,16.40
2022-09-28T15:44:04.377Z,17.00
2022-09-28T15:46:30.944Z,17.80
2022-09-28T15:48:59.722Z,18.50
2022-09-28T15:51:27.448Z,18.90
2022-09-28T15:54:04.463Z,19.10
2022-09-28T15:56:31.545Z,19.20
2022-09-28T15:59:08.780Z,18.80
2022-09-28T16:01:39.757Z,18.00
2022-09-28T16:04:31.283Z,17.00
2022-09-28T16:07:10.150Z,16.50
2022-09-28T16:09:55.441Z,16.60
2022-09-28T16:12:22.480Z,16.30
2022-09-28T16:14:51.155Z,15.90
2022-09-28T16:17:33.539Z,15.60
2022-09-28T16:20:01.914Z,15.50
2022-09-28T16:22:29.051Z,15.40
2022-09-28T16:25:00.126Z,15.30
2022-09-28T16:27:28.551Z,15.20
2022-09-28T16:30:24.443Z,15.00
2022-09-28T16:32:54.219Z,14.70
2022-09-28T16:35:22.816Z,14.40
2022-09-28T16:37:56.656Z,14.20
2022-09-28T16:40:23.549Z,14.20
2022-09-28T16:42:50.320Z,14.30
2022-09-28T16:45:19.730Z,14.20
2022-09-28T16:47:47.312Z,14.20
2022-09-28T16:50:15.522Z,14.20
2022-09-28T16:53:11.362Z,14.00
2022-09-28T16:55:40.996Z,14.00
2022-09-28T16:58:08.385Z,13.70
2022-09-28T17:00:35.166Z,13.60
2022-09-28T17:03:04.204Z,13.70
2022-09-28T17:05:30.857Z,13.60
2022-09-28T17:07:59.639Z,13.50
2022-09-28T17:10:49.747Z,13.50
2022-09-28T17:13:27.045Z,13.60
2022-09-28T17:15:53.804Z,13.50
2022-09-28T17:18:20.727Z,13.30
2022-09-28T17:20:49.599Z,13.30
2022-09-28T17:23:16.790Z,13.30
2022-09-28T17:25:44.284Z,13.20
2022-09-28T17:28:18.909Z,13.10
2022-09-28T17:30:45.513Z,13.00
2022-09-28T17:33:13.243Z,13.00
2022-09-28T17:35:40.496Z,12.90
2022-09-28T17:38:07.205Z,12.80
2022-09-28T17:40:34.704Z,12.70
2022-09-28T17:43:01.834Z,12.70
2022-09-28T17:45:29.257Z,12.60
2022-09-28T17:47:56.005Z,12.60
2022-09-28T17:50:29.671Z,12.60
2022-09-28T17:52:57.731Z,12.50
2022-09-28T17:55:28.606Z,12.40
2022-09-28T17:57:55.750Z,12.30
2022-09-28T18:00:23.285Z,12.30
2022-09-28T18:02:50.805Z,12.20
2022-09-28T18:05:19.471Z,12.20
2022-09-28T18:07:47.757Z,12.10
2022-09-28T18:10:15.867Z,12.00
2022-09-28T18:12:43.172Z,12.00
2022-09-28T18:15:10.172Z,12.00
2022-09-28T18:17:37.073Z,11.90
2022-09-28T18:20:04.226Z,11.80
2022-09-28T18:22:30.857Z,11.70
2022-09-28T18:24:57.360Z,11.70
2022-09-28T18:27:23.918Z,11.70
2022-09-28T18:29:50.436Z,11.60
2022-09-28T18:32:17.028Z,11.70
2022-09-28T18:34:43.584Z,11.60
2022-09-28T18:37:10.522Z,11.60
2022-09-28T18:39:37.214Z,11.60
2022-09-28T18:42:04.113Z,11.60
2022-09-28T18:44:30.632Z,11.50
2022-09-28T18:46:57.143Z,11.50
2022-09-28T18:49:23.783Z,11.40
2022-09-28T18:51:50.321Z,11.50
2022-09-28T18:54:16.997Z,11.50
2022-09-28T18:56:43.505Z,11.50
2022-09-28T18:59:12.330Z,11.50
2022-09-28T19:01:39.865Z,11.50
2022-09-28T19:04:07.363Z,11.50
2022-09-28T19:06:34.382Z,11.40
2022-09-28T19:09:01.073Z,11.40
2022-09-28T19:11:28.532Z,11.40
2022-09-28T19:13:55.578Z,11.40
2022-09-28T19:16:23.999Z,11.30
2022-09-28T19:18:52.285Z,11.30
2022-09-28T19:21:19.211Z,11.30
2022-09-28T19:23:49.239Z,11.30
2022-09-28T19:26:20.907Z,11.40
2022-09-28T19:28:48.046Z,11.40
2022-09-28T19:31:14.962Z,11.40
2022-09-28T19:33:42.092Z,11.40
2022-09-28T19:36:10.282Z,11.40
2022-09-28T19:38:37.695Z,11.40
2022-09-28T19:41:39.287Z,11.40
2022-09-28T19:44:15.478Z,11.40
2022-09-28T19:46:42.168Z,11.30
2022-09-28T19:49:10.278Z,11.30
2022-09-28T19:51:43.851Z,11.30
2022-09-28T19:54:33.120Z,11.20
2022-09-28T19:57:07.320Z,11.20
2022-09-28T19:59:34.156Z,11.20
2022-09-28T20:02:02.035Z,11.10
2022-09-28T20:04:28.849Z,11.20
2022-09-28T20:06:55.403Z,11.10
2022-09-28T20:09:21.913Z,11.00
2022-09-28T20:11:48.739Z,11.00
2022-09-28T20:14:16.008Z,11.00
2022-09-28T20:16:42.513Z,10.90
2022-09-28T20:19:09.006Z,10.90
2022-09-28T20:21:35.569Z,10.90
2022-09-28T20:24:02.215Z,10.80
2022-09-28T20:26:28.813Z,10.80
2022-09-28T20:28:55.317Z,10.70
2022-09-28T20:31:23.163Z,10.70
2022-09-28T20:33:49.747Z,10.60
2022-09-28T20:36:17.900Z,10.60
2022-09-28T20:38:46.703Z,10.50
2022-09-28T20:41:13.792Z,10.50
2022-09-28T20:43:40.888Z,10.40
2022-09-28T20:46:08.787Z,10.40
2022-09-28T20:48:35.342Z,10.30
2022-09-28T20:51:13.315Z,10.20
2022-09-28T20:53:40.652Z,10.20
2022-09-28T20:56:09.923Z,10.10
2022-09-28T20:58:38.034Z,10.10
2022-09-28T21:01:04.710Z,10.00
2022-09-28T21:03:31.492Z,10.00
2022-09-28T21:05:58.397Z,10.00
2022-09-28T21:08:25.612Z,10.00
2022-09-28T21:10:55.423Z,10.00
2022-09-28T21:13:22.021Z,10.00
2022-09-28T21:15:48.891Z,10.00
2022-09-28T21:18:19.160Z,9.90
2022-09-28T21:20:49.680Z,9.90
2022-09-28T21:23:17.114Z,9.90
2022-09-28T21:25:45.566Z,9.80
2022-09-28T21:28:13.094Z,9.80
2022-09-28T21:30:40.236Z,9.70
2022-09-28T21:33:06.894Z,9.70
2022-09-28T21:35:35.165Z,9.60
2022-09-28T21:38:01.665Z,9.70
2022-09-28T21:40:28.221Z,9.60
2022-09-28T21:42:54.764Z,9.60
2022-09-28T21:45:21.303Z,9.50
2022-09-28T21:47:52.768Z,9.50
2022-09-28T21:50:21.805Z,9.50
2022-09-28T21:52:51.867Z,9.50
2022-09-28T21:55:19.391Z,9.40
2022-09-28T21:57:47.041Z,9.40
2022-09-28T22:00:15.192Z,9.40
2022-09-28T22:02:42.046Z,9.30
2022-09-28T22:05:09.161Z,9.40
2022-09-28T22:07:35.693Z,9.30
2022-09-28T22:10:02.249Z,9.30
2022-09-28T22:12:29.656Z,9.30
2022-09-28T22:14:56.160Z,9.20
2022-09-28T22:17:22.728Z,9.20
2022-09-28T22:19:49.281Z,9.20
2022-09-28T22:22:15.792Z,9.20
2022-09-28T22:24:42.289Z,9.10
2022-09-28T22:27:09.045Z,9.10
2022-09-28T22:29:35.990Z,9.10
2022-09-28T22:32:03.070Z,9.00
2022-09-28T22:34:31.620Z,9.00
2022-09-28T22:36:58.736Z,9.00
2022-09-28T22:39:25.353Z,9.00
2022-09-28T22:41:52.488Z,9.00
2022-09-28T22:44:19.726Z,9.00
2022-09-28T22:46:46.426Z,8.90
2022-09-28T22:49:13.229Z,8.90
2022-09-28T22:51:40.076Z,8.90
2022-09-28T22:54:07.113Z,8.80
2022-09-28T22:56:33.615Z,8.80
2022-09-28T22:59:00.110Z,8.80
2022-09-28T23:01:27.888Z,8.80
2022-09-28T23:03:55.473Z,8.80
2022-09-28T23:06:23.756Z,8.80
2022-09-28T23:08:51.451Z,8.70
2022-09-28T23:11:18.177Z,8.70
2022-09-28T23:13:51.723Z,8.70
2022-09-28T23:16:18.683Z,8.80
2022-09-28T23:18:46.034Z,8.70
2022-09-28T23:21:15.211Z,8.60
2022-09-28T23:23:42.373Z,8.70
2022-09-28T23:26:15.954Z,8.60
2022-09-28T23:28:42.591Z,8.60
2022-09-28T23:31:10.110Z,8.60
2022-09-28T23:33:36.668Z,8.50
2022-09-28T23:36:03.299Z,8.50
2022-09-28T23:38:35.872Z,8.60
2022-09-28T23:41:02.434Z,8.50
2022-09-28T23:43:28.982Z,8.50
2022-09-28T23:45:55.474Z,8.40
2022-09-28T23:48:21.953Z,8.40
2022-09-28T23:50:48.599Z,8.40
2022-09-28T23:53:18.236Z,8.40
2022-09-28T23:55:44.749Z,8.40
2022-09-28T23:58:11.578Z,8.30
